Time;durP1;ratioP1;P1;durP2;ratioP2;P2;SDS_P1;SDS_P2;PMS_P1;PMS_P2;Temp;Humidity;BMP_temperature;BMP_pressure;BME280_temperature;BME280_humidity;BME280_pressure;Samples;Min_cycle;Max_cycle;Signal;HPM_P1;HPM_P2
2023/01/20 00:00:00;;;;;;;11.27;6.65;;;;;;;;;;7401470;19;20062;-69
2023/01/20 00:02:25;;;;;;;14.60;7.38;;;;;;;;;;7403332;19;20031;-69
2023/01/20 00:04:50;;;;;;;11.50;6.47;;;;;;;;;;7402909;19;19999;-68
2023/01/20 00:07:16;;;;;;;13.55;6.88;;;;;;;;;;7401756;19;20337;-69
2023/01/20 00:09:41;;;;;;;15.75;7.25;;;;;;;;;;7401524;19;19994;-68
2023/01/20 00:12:06;;;;;;;15.52;7.53;;;;;;;;;;7401382;19;20023;-68
2023/01/20 00:14:32;;;;;;;16.17;6.68;;;;;;;;;;7399307;19;20064;-69
2023/01/20 00:16:58;;;;;;;14.70;6.80;;;;;;;;;;7395283;19;20022;-68
2023/01/20 00:19:24;;;;;;;15.52;6.97;;;;;;;;;;7392809;19;20002;-69
2023/01/20 00:21:50;;;;;;;15.45;7.72;;;;;;;;;;7395964;19;20002;-67
2023/01/20 00:24:15;;;;;;;12.93;6.78;;;;;;;;;;7399805;19;19994;-67
2023/01/20 00:26:40;;;;;;;15.40;7.60;;;;;;;;;;7395745;19;19998;-68
2023/01/20 00:29:07;;;;;;;20.95;7.22;;;;;;;;;;7394373;19;20342;-68
2023/01/20 00:31:34;;;;;;;17.35;6.78;;;;;;;;;;7395621;19;19994;-68
2023/01/20 00:34:01;;;;;;;14.65;7.13;;;;;;;;;;7394984;19;19999;-68
2023/01/20 00:36:30;;;;;;;17.00;7.57;;;;;;;;;;7395470;19;20002;-68
2023/01/20 00:38:55;;;;;;;15.70;7.65;;;;;;;;;;7394238;19;20449;-68
2023/01/20 00:41:21;;;;;;;14.52;7.28;;;;;;;;;;7395226;19;19994;-68
2023/01/20 00:43:46;;;;;;;14.65;7.45;;;;;;;;;;7394678;19;20023;-69
2023/01/20 00:46:12;;;;;;;16.42;7.10;;;;;;;;;;7394125;19;20009;-68
2023/01/20 00:48:38;;;;;;;16.08;6.97;;;;;;;;;;7394415;19;19999;-67
2023/01/20 00:51:04;;;;;;;20.27;8.55;;;;;;;;;;7395753;19;20493;-68
2023/01/20 00:53:30;;;;;;;16.38;7.30;;;;;;;;;;7394926;19;19998;-68
2023/01/20 00:55:55;;;;;;;20.23;7.38;;;;;;;;;;7393791;19;20298;-67
2023/01/20 00:58:20;;;;;;;14.18;7.07;;;;;;;;;;7392819;19;20002;-69
2023/01/20 01:00:47;;;;;;;16.38;7.57;;;;;;;;;;7393087;19;20003;-68
2023/01/20 01:03:13;;;;;;;12.85;7.57;;;;;;;;;;7393963;19;20041;-69
2023/01/20 01:05:38;;;;;;;16.13;7.22;;;;;;;;;;7394090;19;20122;-68
2023/01/20 01:08:04;;;;;;;17.30;7.53;;;;;;;;;;7392870;19;20710;-69
2023/01/20 01:10:29;;;;;;;13.20;7.10;;;;;;;;;;7394222;19;20626;-69
2023/01/20 01:12:54;;;;;;;13.10;6.55;;;;;;;;;;7393651;19;20012;-69
2023/01/20 01:15:20;;;;;;;15.30;7.55;;;;;;;;;;7394153;19;20046;-67
2023/01/20 01:17:45;;;;;;;16.92;7.07;;;;;;;;;;7394071;19;20040;-69
2023/01/20 01:20:12;;;;;;;15.98;7.65;;;;;;;;;;7393889;19;19999;-68
2023/01/20 01:22:38;;;;;;;12.63;6.65;;;;;;;;;;7394348;19;20070;-67
2023/01/20 01:25:03;;;;;;;16.45;7.22;;;;;;;;;;7392389;19;20023;-68
2023/01/20 01:27:29;;;;;;;18.13;7.45;;;;;;;;;;7391678;19;19998;-67
2023/01/20 01:29:54;;;;;;;17.00;7.07;;;;;;;;;;7397044;19;19999;-67
2023/01/20 01:32:21;;;;;;;15.43;7.22;;;;;;;;;;7395668;19;20026;-68
2023/01/20 01:34:46;;;;;;;16.90;8.10;;;;;;;;;;7393673;19;20005;-68
2023/01/20 01:37:11;;;;;;;14.65;6.93;;;;;;;;;;7393568;19;19999;-67
2023/01/20 01:39:37;;;;;;;16.45;6.60;;;;;;;;;;7391873;19;20011;-68
2023/01/20 01:42:02;;;;;;;12.75;6.43;;;;;;;;;;7393374;19;20011;-69
2023/01/20 01:44:27;;;;;;;13.35;6.78;;;;;;;;;;7392843;19;20074;-68
2023/01/20 01:46:53;;;;;;;17.75;6.53;;;;;;;;;;7392106;19;19997;-69
2023/01/20 01:49:20;;;;;;;12.98;6.50;;;;;;;;;;7390283;19;19998;-69
2023/01/20 01:51:58;;;;;;;16.08;6.63;;;;;;;;;;7393037;19;19987;-68
2023/01/20 01:54:29;;;;;;;13.63;6.75;;;;;;;;;;7392743;19;20012;-68
2023/01/20 01:56:54;;;;;;;;;;;;;;;;;;7393670;19;20031;-67
2023/01/20 01:59:20;;;;;;;10.95;5.55;;;;;;;;;;7389795;19;19914;-67
2023/01/20 02:01:50;;;;;;;13.30;5.80;;;;;;;;;;7392809;19;19994;-69
2023/01/20 02:04:19;;;;;;;13.60;6.47;;;;;;;;;;7392141;19;19995;-69
2023/01/20 02:06:57;;;;;;;15.60;7.15;;;;;;;;;;7391508;19;20486;-68
2023/01/20 02:09:25;;;;;;;14.13;6.68;;;;;;;;;;7391393;19;20448;-67
2023/01/20 02:11:58;;;;;;;14.75;6.43;;;;;;;;;;7392987;19;19987;-67
2023/01/20 02:14:29;;;;;;;15.18;7.32;;;;;;;;;;7389603;19;19995;-67
2023/01/20 02:17:06;;;;;;;13.25;6.40;;;;;;;;;;7397069;19;19998;-68
2023/01/20 02:19:54;;;;;;;13.02;6.13;;;;;;;;;;7392471;19;20043;-68
2023/01/20 02:22:47;;;;;;;12.80;6.72;;;;;;;;;;7392738;19;19999;-66
2023/01/20 02:26:06;;;;;;;11.40;6.05;;;;;;;;;;7393394;19;20074;-68
2023/01/20 02:29:02;;;;;;;16.13;6.32;;;;;;;;;;7387696;19;20002;-67
2023/01/20 02:31:49;;;;;;;12.18;5.53;;;;;;;;;;7392254;19;20393;-67
2023/01/20 02:34:19;;;;;;;15.02;7.07;;;;;;;;;;7391431;19;20002;-67
2023/01/20 02:36:56;;;;;;;13.75;6.13;;;;;;;;;;7392034;19;20116;-68
2023/01/20 02:39:27;;;;;;;16.67;6.85;;;;;;;;;;7388997;19;20003;-67
2023/01/20 02:41:57;;;;;;;;;;;;;;;;;;7392016;19;20001;-68
2023/01/20 02:44:50;;;;;;;13.88;6.93;;;;;;;;;;7390612;19;19915;-69
2023/01/20 02:47:22;;;;;;;10.93;6.57;;;;;;;;;;7390074;19;20006;-69
2023/01/20 02:50:12;;;;;;;12.63;6.82;;;;;;;;;;7389575;19;20480;-68
2023/01/20 02:52:43;;;;;;;16.52;6.70;;;;;;;;;;7391245;19;20491;-69
2023/01/20 02:55:14;;;;;;;15.00;6.07;;;;;;;;;;7391640;19;20030;-68
2023/01/20 02:57:47;;;;;;;14.02;6.13;;;;;;;;;;7390887;19;19998;-68
2023/01/20 03:00:19;;;;;;;13.88;6.75;;;;;;;;;;7391126;19;20026;-68
2023/01/20 03:02:48;;;;;;;17.42;7.28;;;;;;;;;;7390249;19;19999;-67
2023/01/20 03:05:21;;;;;;;13.48;7.25;;;;;;;;;;7389054;19;20006;-69
2023/01/20 03:07:52;;;;;;;11.75;6.03;;;;;;;;;;7390982;19;20005;-67
2023/01/20 03:10:21;;;;;;;14.05;7.25;;;;;;;;;;7393031;19;20013;-68
2023/01/20 03:12:56;;;;;;;17.70;7.60;;;;;;;;;;7393280;19;20441;-69
2023/01/20 03:15:29;;;;;;;15.65;6.70;;;;;;;;;;7392802;19;20054;-68
2023/01/20 03:17:54;;;;;;;14.40;7.07;;;;;;;;;;7393689;19;19999;-67
2023/01/20 03:20:20;;;;;;;17.83;6.25;;;;;;;;;;7394544;19;20012;-68
2023/01/20 03:22:45;;;;;;;14.65;6.80;;;;;;;;;;7392094;19;20006;-69
2023/01/20 03:25:13;;;;;;;16.13;6.82;;;;;;;;;;7390292;19;19999;-67
2023/01/20 03:27:38;;;;;;;16.15;6.93;;;;;;;;;;7388262;19;20808;-69
2023/01/20 03:30:11;;;;;;;12.88;6.82;;;;;;;;;;7388344;19;20002;-68
2023/01/20 03:32:36;;;;;;;13.90;7.00;;;;;;;;;;7389664;19;19998;-68
2023/01/20 03:35:02;;;;;;;13.82;6.30;;;;;;;;;;7390713;19;19994;-68
2023/01/20 03:37:27;;;;;;;17.42;7.70;;;;;;;;;;7393956;19;20459;-70
2023/01/20 03:39:53;;;;;;;17.67;7.70;;;;;;;;;;7387981;19;20036;-68
2023/01/20 03:42:27;;;;;;;13.82;7.38;;;;;;;;;;7389456;19;20010;-69
2023/01/20 03:45:08;;;;;;;15.82;7.55;;;;;;;;;;7387744;19;20496;-69
2023/01/20 03:48:05;;;;;;;15.90;7.32;;;;;;;;;;7390450;19;20013;-68
2023/01/20 03:50:47;;;;;;;12.77;6.38;;;;;;;;;;7397267;19;20058;-69
2023/01/20 03:53:22;;;;;;;12.23;6.50;;;;;;;;;;7399643;19;20003;-69
2023/01/20 03:55:55;;;;;;;16.60;6.28;;;;;;;;;;7400943;19;19995;-69
2023/01/20 03:58:27;;;;;;;16.60;5.78;;;;;;;;;;7396349;19;20013;-67
2023/01/20 04:00:53;;;;;;;14.18;6.70;;;;;;;;;;7396900;19;19994;-68
2023/01/20 04:03:25;;;;;;;14.25;7.25;;;;;;;;;;7396088;19;19998;-69
2023/01/20 04:05:50;;;;;;;;;;;;;;;;;;7396522;19;20014;-68
2023/01/20 04:08:17;;;;;;;13.30;5.70;;;;;;;;;;7397500;19;20257;-68
2023/01/20 04:10:47;;;;;;;11.90;6.07;;;;;;;;;;7402450;19;19994;-67
2023/01/20 04:13:13;;;;;;;14.00;7.20;;;;;;;;;;7395637;19;20025;-68
2023/01/20 04:15:43;;;;;;;13.10;6.65;;;;;;;;;;7396900;19;20006;-67
2023/01/20 04:18:16;;;;;;;16.48;6.63;;;;;;;;;;7395897;19;20007;-69
2023/01/20 04:20:44;;;;;;;20.08;6.78;;;;;;;;;;7396328;19;20424;-68
2023/01/20 04:23:25;;;;;;;17.38;6.82;;;;;;;;;;7396558;19;19999;-68
2023/01/20 04:25:51;;;;;;;16.48;6.75;;;;;;;;;;7398678;19;20423;-69
2023/01/20 04:28:16;;;;;;;12.55;6.75;;;;;;;;;;7395306;19;20070;-67
2023/01/20 04:30:41;;;;;;;18.02;7.05;;;;;;;;;;7396010;19;20002;-68
2023/01/20 04:33:07;;;;;;;14.13;6.68;;;;;;;;;;7393550;19;20006;-67
2023/01/20 04:35:32;;;;;;;16.95;7.43;;;;;;;;;;7395423;19;20037;-68
2023/01/20 04:37:57;;;;;;;21.45;7.65;;;;;;;;;;7394769;19;19991;-69
2023/01/20 04:40:23;;;;;;;19.25;8.75;;;;;;;;;;7395637;19;20017;-68
2023/01/20 04:42:48;;;;;;;13.25;7.05;;;;;;;;;;7394883;19;19995;-70
2023/01/20 04:45:15;;;;;;;15.77;8.02;;;;;;;;;;7395312;19;20030;-68
2023/01/20 04:47:41;;;;;;;25.02;8.90;;;;;;;;;;7392938;19;19998;-69
2023/01/20 04:50:07;;;;;;;19.25;9.73;;;;;;;;;;7395126;19;20368;-68
2023/01/20 04:52:32;;;;;;;19.25;8.13;;;;;;;;;;7394444;19;19998;-68
2023/01/20 04:54:58;;;;;;;21.55;8.82;;;;;;;;;;7394472;19;20009;-68
2023/01/20 04:57:23;;;;;;;18.73;7.93;;;;;;;;;;7394790;19;20038;-68
2023/01/20 04:59:48;;;;;;;22.70;9.23;;;;;;;;;;7392901;19;19999;-68
2023/01/20 05:02:14;;;;;;;21.92;10.52;;;;;;;;;;7391711;19;20102;-68
2023/01/20 05:04:39;;;;;;;19.70;10.07;;;;;;;;;;7393145;19;20066;-69
2023/01/20 05:07:04;;;;;;;16.55;8.65;;;;;;;;;;7392963;19;20055;-68
2023/01/20 05:09:30;;;;;;;15.05;8.13;;;;;;;;;;7390872;19;20003;-68
2023/01/20 05:11:55;;;;;;;17.55;8.80;;;;;;;;;;7394600;19;19999;-68
2023/01/20 05:14:21;;;;;;;15.85;8.57;;;;;;;;;;7393788;19;20464;-67
2023/01/20 05:16:46;;;;;;;18.42;9.10;;;;;;;;;;7392657;19;20009;-69
2023/01/20 05:19:11;;;;;;;21.08;9.82;;;;;;;;;;7392737;19;20117;-68
2023/01/20 05:21:37;;;;;;;21.98;10.05;;;;;;;;;;7394356;19;19994;-69
2023/01/20 05:24:02;;;;;;;19.55;9.57;;;;;;;;;;7396574;19;20006;-69
2023/01/20 05:26:27;;;;;;;20.75;9.45;;;;;;;;;;7392851;19;20002;-68
2023/01/20 05:28:53;;;;;;;22.80;9.65;;;;;;;;;;7392922;19;19994;-68
2023/01/20 05:31:18;;;;;;;18.77;8.98;;;;;;;;;;7394589;19;20114;-69
2023/01/20 05:33:44;;;;;;;17.08;8.60;;;;;;;;;;7395046;19;20025;-68
2023/01/20 05:36:10;;;;;;;16.42;8.13;;;;;;;;;;7396032;19;20001;-68
2023/01/20 05:38:37;;;;;;;16.63;7.70;;;;;;;;;;7392797;19;20329;-69
2023/01/20 05:41:04;;;;;;;17.40;8.45;;;;;;;;;;7393670;19;20023;-68
2023/01/20 05:43:30;;;;;;;19.10;8.77;;;;;;;;;;7391004;19;20488;-68
2023/01/20 05:45:55;;;;;;;19.52;8.65;;;;;;;;;;7390212;19;20004;-68
2023/01/20 05:48:21;;;;;;;18.23;8.55;;;;;;;;;;7391845;19;20699;-68
2023/01/20 05:50:46;;;;;;;18.08;9.50;;;;;;;;;;7393082;19;19998;-69
2023/01/20 05:53:12;;;;;;;20.25;8.90;;;;;;;;;;7396548;19;20050;-68
2023/01/20 05:55:37;;;;;;;20.48;10.30;;;;;;;;;;7394893;19;19998;-68
2023/01/20 05:58:03;;;;;;;19.48;9.38;;;;;;;;;;7392030;19;20027;-67
2023/01/20 06:00:29;;;;;;;13.55;6.97;;;;;;;;;;7392531;19;20485;-68
2023/01/20 06:02:54;;;;;;;20.42;9.05;;;;;;;;;;7392533;19;19998;-68
2023/01/20 06:05:20;;;;;;;18.05;8.93;;;;;;;;;;7396972;19;20007;-70
2023/01/20 06:07:45;;;;;;;17.88;9.13;;;;;;;;;;7392094;19;20017;-69
2023/01/20 06:10:11;;;;;;;17.73;9.43;;;;;;;;;;7397195;19;19987;-68
2023/01/20 06:12:37;;;;;;;22.75;9.75;;;;;;;;;;7393085;19;20003;-70
2023/01/20 06:15:03;;;;;;;19.33;9.10;;;;;;;;;;7388713;19;20436;-69
2023/01/20 06:17:28;;;;;;;21.45;8.25;;;;;;;;;;7383431;19;20013;-68
2023/01/20 06:19:54;;;;;;;20.17;8.50;;;;;;;;;;7386699;19;19994;-68
2023/01/20 06:22:19;;;;;;;20.15;9.05;;;;;;;;;;7367134;19;20675;-68
2023/01/20 06:24:45;;;;;;;16.70;8.57;;;;;;;;;;7390697;19;20006;-69
2023/01/20 06:27:13;;;;;;;22.27;8.82;;;;;;;;;;7390284;19;20013;-68
2023/01/20 06:29:39;;;;;;;26.15;9.95;;;;;;;;;;7382549;19;20349;-68
2023/01/20 06:32:07;;;;;;;27.35;9.93;;;;;;;;;;7389664;19;20016;-68
2023/01/20 06:34:33;;;;;;;21.02;8.68;;;;;;;;;;7388075;19;20006;-67
2023/01/20 06:36:58;;;;;;;29.08;11.93;;;;;;;;;;7390837;19;20054;-68
2023/01/20 06:39:24;;;;;;;27.80;9.95;;;;;;;;;;7387993;19;19999;-69
2023/01/20 06:41:49;;;;;;;26.80;10.13;;;;;;;;;;7364982;19;20118;-69
2023/01/20 06:44:15;;;;;;;18.23;9.00;;;;;;;;;;7391959;19;20001;-69
2023/01/20 06:46:40;;;;;;;23.90;11.40;;;;;;;;;;7389294;19;20006;-68
2023/01/20 06:49:06;;;;;;;19.85;10.27;;;;;;;;;;7394814;19;20149;-69
2023/01/20 06:51:32;;;;;;;20.75;10.43;;;;;;;;;;7392862;19;20001;-68
2023/01/20 06:53:57;;;;;;;22.23;8.98;;;;;;;;;;7392477;19;20341;-67
2023/01/20 06:56:23;;;;;;;16.35;8.43;;;;;;;;;;7390670;19;20009;-68
2023/01/20 06:58:49;;;;;;;21.63;12.05;;;;;;;;;;7389927;19;20013;-69
2023/01/20 07:01:23;;;;;;;22.52;10.88;;;;;;;;;;7386205;19;20037;-70
2023/01/20 07:03:48;;;;;;;23.15;11.07;;;;;;;;;;7391098;19;19999;-67
2023/01/20 07:06:15;;;;;;;20.17;9.50;;;;;;;;;;7388176;19;20388;-69
2023/01/20 07:08:42;;;;;;;21.27;9.57;;;;;;;;;;7388666;19;20060;-67
2023/01/20 07:11:08;;;;;;;19.38;8.20;;;;;;;;;;7387983;19;20506;-69
2023/01/20 07:13:33;;;;;;;21.10;10.13;;;;;;;;;;7388411;19;20014;-72
2023/01/20 07:15:58;;;;;;;18.75;9.18;;;;;;;;;;7388601;19;20007;-71
2023/01/20 07:18:23;;;;;;;17.85;9.82;;;;;;;;;;7387827;19;20003;-70
2023/01/20 07:20:55;;;;;;;19.58;9.52;;;;;;;;;;7388289;19;20011;-71
2023/01/20 07:23:21;;;;;;;17.70;8.93;;;;;;;;;;7386343;19;20003;-70
2023/01/20 07:26:08;;;;;;;21.02;10.68;;;;;;;;;;7383494;19;20010;-69
2023/01/20 07:28:34;;;;;;;16.90;8.40;;;;;;;;;;7394833;19;20020;-71
2023/01/20 07:31:08;;;;;;;19.85;9.23;;;;;;;;;;7397391;19;20002;-69
2023/01/20 07:33:34;;;;;;;17.30;9.05;;;;;;;;;;7394263;19;20017;-71
2023/01/20 07:36:00;;;;;;;17.90;9.10;;;;;;;;;;7395379;19;20058;-71
2023/01/20 07:38:26;;;;;;;24.98;9.50;;;;;;;;;;7392064;19;20098;-70
2023/01/20 07:40:51;;;;;;;20.88;9.35;;;;;;;;;;7395211;19;19999;-68
2023/01/20 07:43:17;;;;;;;16.13;8.40;;;;;;;;;;7395211;19;19995;-71
2023/01/20 07:45:42;;;;;;;21.10;9.32;;;;;;;;;;7396803;19;20001;-71
2023/01/20 07:48:08;;;;;;;28.63;13.90;;;;;;;;;;7395704;19;20002;-70
2023/01/20 07:50:35;;;;;;;23.35;11.73;;;;;;;;;;7393968;19;19998;-69
2023/01/20 07:53:00;;;;;;;20.23;10.10;;;;;;;;;;7394486;19;19987;-69
2023/01/20 07:55:25;;;;;;;12.65;6.45;;;;;;;;;;7394439;19;20036;-71
2023/01/20 07:57:51;;;;;;;16.13;8.63;;;;;;;;;;7395819;19;20078;-69
2023/01/20 08:00:17;;;;;;;19.05;9.77;;;;;;;;;;7393945;19;19998;-71
2023/01/20 08:02:43;;;;;;;17.30;8.98;;;;;;;;;;7395079;19;20637;-69
2023/01/20 08:05:08;;;;;;;20.77;8.65;;;;;;;;;;7393960;19;20092;-69
2023/01/20 08:07:33;;;;;;;20.92;9.60;;;;;;;;;;7392249;19;19987;-69
2023/01/20 08:09:59;;;;;;;15.85;9.55;;;;;;;;;;7393260;19;20445;-69
2023/01/20 08:12:24;;;;;;;14.90;8.20;;;;;;;;;;7394059;19;20012;-70
2023/01/20 08:14:49;;;;;;;18.15;8.95;;;;;;;;;;7393485;19;19994;-71
2023/01/20 08:17:15;;;;;;;16.85;8.02;;;;;;;;;;7395492;19;20334;-70
2023/01/20 08:19:40;;;;;;;18.48;9.32;;;;;;;;;;7392712;19;20002;-70
2023/01/20 08:22:06;;;;;;;18.67;8.98;;;;;;;;;;7393422;19;20017;-69
2023/01/20 08:24:31;;;;;;;16.55;8.02;;;;;;;;;;7390260;19;19991;-70
2023/01/20 08:26:57;;;;;;;20.85;9.80;;;;;;;;;;7389360;19;20002;-69
2023/01/20 08:29:23;;;;;;;21.83;9.52;;;;;;;;;;7385191;19;20522;-70
2023/01/20 08:31:49;;;;;;;17.70;9.15;;;;;;;;;;7393588;19;20112;-70
2023/01/20 08:34:15;;;;;;;21.98;9.18;;;;;;;;;;7394516;19;20539;-70
2023/01/20 08:36:40;;;;;;;20.30;9.57;;;;;;;;;;7389573;19;20042;-69
2023/01/20 08:39:08;;;;;;;18.73;8.15;;;;;;;;;;7393352;19;20518;-70
2023/01/20 08:41:36;;;;;;;14.07;8.20;;;;;;;;;;7384510;19;20015;-74
2023/01/20 08:44:04;;;;;;;14.63;8.15;;;;;;;;;;7391635;19;20541;-70
2023/01/20 08:46:30;;;;;;;16.67;7.95;;;;;;;;;;7393226;19;20017;-71
2023/01/20 08:48:56;;;;;;;13.57;6.95;;;;;;;;;;7390697;19;20015;-70
2023/01/20 08:51:24;;;;;;;12.57;6.97;;;;;;;;;;7389873;19;20063;-72
2023/01/20 08:53:50;;;;;;;13.27;6.18;;;;;;;;;;7392927;19;20019;-73
2023/01/20 08:56:17;;;;;;;12.00;7.18;;;;;;;;;;7390702;19;20138;-71
2023/01/20 08:58:43;;;;;;;12.60;7.18;;;;;;;;;;7389708;19;20028;-72
2023/01/20 09:01:15;;;;;;;12.02;7.72;;;;;;;;;;7393106;19;20014;-74
2023/01/20 09:03:40;;;;;;;16.10;7.53;;;;;;;;;;7390601;19;20025;-72
2023/01/20 09:06:07;;;;;;;15.60;7.93;;;;;;;;;;7393419;19;20006;-74
2023/01/20 09:08:33;;;;;;;16.17;7.78;;;;;;;;;;7390937;19;20010;-74
2023/01/20 09:11:10;;;;;;;18.02;8.18;;;;;;;;;;7393497;19;20078;-74
2023/01/20 09:13:36;;;;;;;13.77;7.22;;;;;;;;;;7366285;19;20014;-72
2023/01/20 09:16:03;;;;;;;18.35;7.40;;;;;;;;;;7391634;19;20024;-71
2023/01/20 09:18:30;;;;;;;10.73;6.20;;;;;;;;;;7390905;19;20023;-73
2023/01/20 09:20:57;;;;;;;12.35;6.55;;;;;;;;;;7392342;19;19998;-71
2023/01/20 09:23:22;;;;;;;16.55;7.65;;;;;;;;;;7390893;19;20014;-74
2023/01/20 09:25:48;;;;;;;14.07;6.63;;;;;;;;;;7391463;19;20002;-74
2023/01/20 09:28:13;;;;;;;11.85;6.43;;;;;;;;;;7390495;19;20104;-73
2023/01/20 09:30:38;;;;;;;14.15;7.45;;;;;;;;;;7390436;19;20348;-73
2023/01/20 09:33:04;;;;;;;14.45;7.65;;;;;;;;;;7393121;19;20042;-74
2023/01/20 09:35:29;;;;;;;16.73;6.75;;;;;;;;;;7394699;19;20016;-74
2023/01/20 09:44:11;;;;;;;11.45;6.82;;;;;;;;;;7382311;19;20018;-74
2023/01/20 09:47:20;;;;;;;13.57;7.55;;;;;;;;;;7386205;19;20007;-74
2023/01/20 09:53:29;;;;;;;21.70;7.60;;;;;;;;;;7380605;19;20014;-72
2023/01/20 09:55:58;;;;;;;13.90;7.40;;;;;;;;;;7383455;19;20006;-74
2023/01/20 09:58:45;;;;;;;12.57;7.30;;;;;;;;;;7373426;19;20018;-73
2023/01/20 10:01:17;;;;;;;12.50;7.13;;;;;;;;;;7373577;19;20476;-73
2023/01/20 10:04:03;;;;;;;13.77;7.78;;;;;;;;;;7372775;19;20006;-73
2023/01/20 10:06:37;;;;;;;12.90;6.72;;;;;;;;;;7378140;19;20061;-72
2023/01/20 10:09:10;;;;;;;14.50;7.85;;;;;;;;;;7379592;19;20018;-72
2023/01/20 10:11:41;;;;;;;13.95;7.03;;;;;;;;;;7382427;19;20081;-72
2023/01/20 10:14:34;;;;;;;14.02;7.38;;;;;;;;;;7382333;19;20014;-73
2023/01/20 10:17:24;;;;;;;15.43;7.72;;;;;;;;;;7384450;19;20010;-71
2023/01/20 10:19:52;;;;;;;11.43;6.85;;;;;;;;;;7381652;19;20010;-72
2023/01/20 10:22:28;;;;;;;14.85;7.72;;;;;;;;;;7382902;19;20464;-72
2023/01/20 10:25:04;;;;;;;15.45;7.57;;;;;;;;;;7379810;19;20006;-71
2023/01/20 10:27:32;;;;;;;15.68;7.63;;;;;;;;;;7382653;19;20006;-73
2023/01/20 10:30:10;;;;;;;13.45;7.45;;;;;;;;;;7375227;19;20026;-72
2023/01/20 10:32:39;;;;;;;15.82;7.75;;;;;;;;;;7380389;19;20564;-73
2023/01/20 10:35:15;;;;;;;13.00;7.32;;;;;;;;;;7381323;19;20027;-72
2023/01/20 10:37:41;;;;;;;12.77;7.25;;;;;;;;;;7382084;19;20006;-71
2023/01/20 10:40:15;;;;;;;13.90;7.47;;;;;;;;;;7356881;19;21008;-72
2023/01/20 10:42:48;;;;;;;14.13;8.00;;;;;;;;;;7382668;19;20366;-73
2023/01/20 10:45:27;;;;;;;15.07;7.55;;;;;;;;;;7384006;19;20010;-73
2023/01/20 10:48:04;;;;;;;13.98;7.40;;;;;;;;;;7384882;19;20010;-72
2023/01/20 10:50:43;;;;;;;13.80;7.78;;;;;;;;;;7378436;19;20531;-71
2023/01/20 10:53:21;;;;;;;13.38;7.00;;;;;;;;;;7380731;19;20002;-73
2023/01/20 10:55:49;;;;;;;13.60;7.78;;;;;;;;;;7387308;19;20014;-72
2023/01/20 10:58:40;;;;;;;15.63;7.93;;;;;;;;;;7385895;19;20010;-73
2023/01/20 11:01:09;;;;;;;14.57;7.13;;;;;;;;;;7387399;19;20066;-72
2023/01/20 11:03:39;;;;;;;11.48;6.70;;;;;;;;;;7382943;19;20018;-72
2023/01/20 11:06:05;;;;;;;14.10;7.32;;;;;;;;;;7378364;19;20013;-74
2023/01/20 11:08:31;;;;;;;13.70;7.20;;;;;;;;;;7378269;19;20074;-74
2023/01/20 11:11:00;;;;;;;13.85;7.30;;;;;;;;;;7384286;19;20006;-74
2023/01/20 11:13:26;;;;;;;12.52;7.10;;;;;;;;;;7380895;19;20006;-74
2023/01/20 11:16:02;;;;;;;16.77;7.55;;;;;;;;;;7382792;19;20006;-75
2023/01/20 11:18:31;;;;;;;13.13;7.45;;;;;;;;;;7374474;19;20033;-76
2023/01/20 11:21:02;;;;;;;16.63;8.05;;;;;;;;;;7384895;19;20011;-74
2023/01/20 11:23:39;;;;;;;14.25;7.88;;;;;;;;;;7376838;19;20006;-76
2023/01/20 11:26:10;;;;;;;14.57;7.85;;;;;;;;;;7383882;19;19999;-75
2023/01/20 11:28:57;;;;;;;20.20;8.52;;;;;;;;;;7378248;19;20010;-74
2023/01/20 11:31:36;;;;;;;13.57;7.57;;;;;;;;;;7381504;19;20015;-75
2023/01/20 11:34:15;;;;;;;10.73;6.22;;;;;;;;;;7378528;19;20220;-74
2023/01/20 11:36:40;;;;;;;17.65;7.20;;;;;;;;;;7365542;19;20021;-73
2023/01/20 11:39:22;;;;;;;13.65;7.57;;;;;;;;;;7361983;19;20361;-73
2023/01/20 11:41:48;;;;;;;16.48;7.63;;;;;;;;;;7376269;19;20057;-72
2023/01/20 11:44:19;;;;;;;13.00;7.20;;;;;;;;;;7377260;19;20003;-73
2023/01/20 11:46:44;;;;;;;;;;;;;;;;;;7355945;19;20438;-74
2023/01/20 11:49:12;;;;;;;13.63;5.10;;;;;;;;;;7377491;19;19927;-72
2023/01/20 11:51:50;;;;;;;15.40;6.72;;;;;;;;;;7378056;19;20263;-74
2023/01/20 11:54:20;;;;;;;11.18;6.18;;;;;;;;;;7383430;19;20002;-75
2023/01/20 11:57:03;;;;;;;12.85;7.22;;;;;;;;;;7382934;19;20074;-73
2023/01/20 11:59:34;;;;;;;9.50;5.15;;;;;;;;;;7377850;19;19995;-73
2023/01/20 12:02:05;;;;;;;9.95;4.82;;;;;;;;;;7384522;19;20007;-74
2023/01/20 12:04:33;;;;;;;;;;;;;;;;;;7385397;19;20002;-74
2023/01/20 12:07:04;;;;;;;8.30;4.18;;;;;;;;;;7379278;19;19918;-74
2023/01/20 12:09:37;;;;;;;10.77;4.03;;;;;;;;;;7383385;19;20022;-75
2023/01/20 12:12:23;;;;;;;7.35;4.00;;;;;;;;;;7392927;19;19999;-73
2023/01/20 12:15:04;;;;;;;11.20;5.00;;;;;;;;;;7386378;19;20070;-76
2023/01/20 12:17:43;;;;;;;10.27;4.57;;;;;;;;;;7388115;19;20006;-74
2023/01/20 12:20:23;;;;;;;8.50;4.45;;;;;;;;;;7388804;19;20007;-73
2023/01/20 12:23:09;;;;;;;10.48;5.13;;;;;;;;;;7389752;19;20003;-73
2023/01/20 12:25:45;;;;;;;9.23;4.60;;;;;;;;;;7388083;19;20017;-74
2023/01/20 12:28:56;;;;;;;7.82;4.65;;;;;;;;;;7384183;19;20027;-76
2023/01/20 12:31:23;;;;;;;12.45;5.97;;;;;;;;;;7383099;19;20043;-75
2023/01/20 12:34:10;;;;;;;13.15;5.57;;;;;;;;;;7381012;19;21061;-78
2023/01/20 12:37:00;;;;;;;9.93;5.65;;;;;;;;;;7385278;19;20398;-75
2023/01/20 12:39:43;;;;;;;10.13;5.00;;;;;;;;;;7383831;19;20046;-73
2023/01/20 12:42:08;;;;;;;9.90;5.35;;;;;;;;;;7386005;19;20018;-75
2023/01/20 12:44:43;;;;;;;10.40;5.00;;;;;;;;;;7385040;19;20002;-78
2023/01/20 12:47:33;;;;;;;13.48;5.93;;;;;;;;;;7387242;19;20014;-75
2023/01/20 12:49:59;;;;;;;10.97;5.40;;;;;;;;;;7388014;19;20006;-78
2023/01/20 12:52:37;;;;;;;12.63;5.07;;;;;;;;;;7389320;19;20017;-78
2023/01/20 12:55:21;;;;;;;9.13;4.50;;;;;;;;;;7392761;19;20045;-75
2023/01/20 12:57:52;;;;;;;11.65;4.93;;;;;;;;;;7392832;19;20611;-75
2023/01/20 13:00:38;;;;;;;11.70;5.30;;;;;;;;;;7393048;19;20007;-77
2023/01/20 13:03:41;;;;;;;9.63;5.10;;;;;;;;;;7387534;19;20699;-75
2023/01/20 13:06:51;;;;;;;12.10;5.43;;;;;;;;;;7390983;19;20014;-75
2023/01/20 13:09:44;;;;;;;13.82;5.47;;;;;;;;;;7387667;19;20109;-77
2023/01/20 13:12:28;;;;;;;11.77;4.97;;;;;;;;;;7387209;19;20378;-74
2023/01/20 13:15:21;;;;;;;11.43;5.00;;;;;;;;;;7390668;19;20484;-76
2023/01/20 13:18:05;;;;;;;11.80;5.22;;;;;;;;;;7385779;19;20015;-77
2023/01/20 13:20:33;;;;;;;13.20;5.90;;;;;;;;;;7388794;19;20019;-76
2023/01/20 13:23:03;;;;;;;12.75;5.75;;;;;;;;;;7388620;19;20736;-75
2023/01/20 13:25:29;;;;;;;12.25;5.93;;;;;;;;;;7387309;19;20501;-76
2023/01/20 13:27:55;;;;;;;14.05;5.68;;;;;;;;;;7387318;19;20018;-76
2023/01/20 13:30:36;;;;;;;12.60;5.43;;;;;;;;;;7385881;19;19998;-74
2023/01/20 13:33:12;;;;;;;12.67;6.13;;;;;;;;;;7388086;19;20266;-75
2023/01/20 13:35:48;;;;;;;13.60;5.38;;;;;;;;;;7386142;19;20318;-74
2023/01/20 13:38:34;;;;;;;10.20;5.32;;;;;;;;;;7391713;19;20460;-77
2023/01/20 13:41:04;;;;;;;12.65;5.47;;;;;;;;;;7390791;19;20015;-76
2023/01/20 13:43:46;;;;;;;13.25;5.38;;;;;;;;;;7394929;19;19994;-76
2023/01/20 13:46:13;;;;;;;8.18;4.30;;;;;;;;;;7394213;19;20006;-78
2023/01/20 13:49:03;;;;;;;7.53;3.83;;;;;;;;;;7393731;19;20014;-76
2023/01/20 13:51:28;;;;;;;9.27;3.83;;;;;;;;;;7387131;19;20017;-75
2023/01/20 13:54:27;;;;;;;7.57;3.63;;;;;;;;;;7395390;19;20002;-75
2023/01/20 13:57:27;;;;;;;10.32;3.53;;;;;;;;;;7394838;19;20010;-77
2023/01/20 13:59:54;;;;;;;6.85;3.08;;;;;;;;;;7390705;19;20007;-76
2023/01/20 14:02:22;;;;;;;7.57;3.70;;;;;;;;;;7390201;19;20002;-77
2023/01/20 14:04:48;;;;;;;6.55;3.10;;;;;;;;;;7388484;19;20524;-76
2023/01/20 14:07:22;;;;;;;9.13;3.13;;;;;;;;;;7386019;19;20006;-76
2023/01/20 14:09:55;;;;;;;9.10;3.20;;;;;;;;;;7387537;19;20010;-76
2023/01/20 14:12:21;;;;;;;4.88;2.70;;;;;;;;;;7384881;19;20468;-74
2023/01/20 14:14:48;;;;;;;9.60;3.60;;;;;;;;;;7386188;19;20026;-75
2023/01/20 14:17:17;;;;;;;9.20;3.63;;;;;;;;;;7389237;19;20133;-75
2023/01/20 14:19:47;;;;;;;6.88;3.53;;;;;;;;;;7380801;19;19998;-76
2023/01/20 14:22:28;;;;;;;8.52;3.20;;;;;;;;;;7385658;19;20022;-75
2023/01/20 14:24:59;;;;;;;6.47;3.53;;;;;;;;;;7387256;19;20049;-75
2023/01/20 14:27:34;;;;;;;10.82;3.67;;;;;;;;;;7380856;19;20011;-75
2023/01/20 14:30:13;;;;;;;6.55;3.33;;;;;;;;;;7378676;19;20010;-74
2023/01/20 14:32:39;;;;;;;6.15;3.25;;;;;;;;;;7381244;19;20014;-76
2023/01/20 14:35:14;;;;;;;9.73;4.05;;;;;;;;;;7380979;19;20361;-75
2023/01/20 14:37:40;;;;;;;8.30;3.33;;;;;;;;;;7379131;19;20020;-77
2023/01/20 14:40:21;;;;;;;6.28;3.17;;;;;;;;;;7383400;19;20069;-74
2023/01/20 14:43:13;;;;;;;8.45;3.58;;;;;;;;;;7373197;19;20007;-77
2023/01/20 14:45:42;;;;;;;7.28;3.17;;;;;;;;;;7388114;19;20031;-74
2023/01/20 14:48:10;;;;;;;7.05;3.30;;;;;;;;;;7382845;19;20002;-74
2023/01/20 14:50:37;;;;;;;7.22;3.40;;;;;;;;;;7374958;19;20010;-74
2023/01/20 14:53:03;;;;;;;7.35;3.17;;;;;;;;;;7385346;19;20484;-75
2023/01/20 14:55:42;;;;;;;8.50;3.10;;;;;;;;;;7383975;19;20009;-76
2023/01/20 14:58:17;;;;;;;8.85;4.07;;;;;;;;;;7383903;19;20007;-76
2023/01/20 15:00:45;;;;;;;6.72;3.30;;;;;;;;;;7383382;19;20014;-74
2023/01/20 15:03:22;;;;;;;7.28;3.67;;;;;;;;;;7378370;19;20054;-73